sensor_id;sensor_type;location;lat;lon;timestamp;P1;durP1;ratioP1;P2;durP2;ratioP2
43048;SDS011;28673;44.412;11.918;2023-05-29T00:01:39;24.67;;;14.90;;
43048;SDS011;28673;44.412;11.918;2023-05-29T00:04:05;23.45;;;15.30;;
43048;SDS011;28673;44.412;11.918;2023-05-29T00:06:31;22.45;;;14.88;;
43048;SDS011;28673;44.412;11.918;2023-05-29T00:09:15;19.42;;;14.55;;
43048;SDS011;28673;44.412;11.918;2023-05-29T00:11:41;19.75;;;14.93;;
43048;SDS011;28673;44.412;11.918;2023-05-29T00:14:07;22.80;;;14.13;;
43048;SDS011;28673;44.412;11.918;2023-05-29T00:16:33;21.92;;;14.45;;
43048;SDS011;28673;44.412;11.918;2023-05-29T00:18:59;21.40;;;16.67;;
43048;SDS011;28673;44.412;11.918;2023-05-29T00:21:47;20.42;;;14.48;;
43048;SDS011;28673;44.412;11.918;2023-05-29T00:26:58;23.10;;;15.30;;
43048;SDS011;28673;44.412;11.918;2023-05-29T00:29:24;24.40;;;15.50;;
43048;SDS011;28673;44.412;11.918;2023-05-29T00:32:09;22.48;;;15.52;;
43048;SDS011;28673;44.412;11.918;2023-05-29T00:43:08;28.48;;;15.27;;
43048;SDS011;28673;44.412;11.918;2023-05-29T00:45:52;23.40;;;15.27;;
43048;SDS011;28673;44.412;11.918;2023-05-29T00:48:17;19.70;;;14.77;;
43048;SDS011;28673;44.412;11.918;2023-05-29T00:50:43;30.60;;;15.52;;
43048;SDS011;28673;44.412;11.918;2023-05-29T00:53:09;21.88;;;14.88;;
43048;SDS011;28673;44.412;11.918;2023-05-29T00:55:36;22.40;;;16.05;;
43048;SDS011;28673;44.412;11.918;2023-05-29T00:58:20;23.90;;;16.13;;
43048;SDS011;28673;44.412;11.918;2023-05-29T01:00:47;23.05;;;16.90;;
43048;SDS011;28673;44.412;11.918;2023-05-29T01:03:12;29.60;;;16.10;;
43048;SDS011;28673;44.412;11.918;2023-05-29T01:05:42;26.67;;;17.00;;
43048;SDS011;28673;44.412;11.918;2023-05-29T01:08:45;23.30;;;15.13;;
43048;SDS011;28673;44.412;11.918;2023-05-29T01:11:21;27.20;;;16.10;;
43048;SDS011;28673;44.412;11.918;2023-05-29T01:13:58;23.75;;;15.05;;
43048;SDS011;28673;44.412;11.918;2023-05-29T01:16:48;26.70;;;15.15;;
43048;SDS011;28673;44.412;11.918;2023-05-29T01:28:00;22.83;;;14.80;;
43048;SDS011;28673;44.412;11.918;2023-05-29T01:30:28;18.90;;;14.07;;
43048;SDS011;28673;44.412;11.918;2023-05-29T01:32:57;22.10;;;14.95;;
43048;SDS011;28673;44.412;11.918;2023-05-29T01:35:42;22.05;;;14.32;;
43048;SDS011;28673;44.412;11.918;2023-05-29T01:38:08;26.02;;;14.27;;
43048;SDS011;28673;44.412;11.918;2023-05-29T01:40:34;25.85;;;15.70;;
43048;SDS011;28673;44.412;11.918;2023-05-29T01:43:19;20.77;;;14.43;;
43048;SDS011;28673;44.412;11.918;2023-05-29T01:46:03;21.58;;;15.25;;
43048;SDS011;28673;44.412;11.918;2023-05-29T01:48:47;21.02;;;16.42;;
43048;SDS011;28673;44.412;11.918;2023-05-29T01:51:51;21.45;;;15.73;;
43048;SDS011;28673;44.412;11.918;2023-05-29T01:54:17;25.27;;;16.65;;
43048;SDS011;28673;44.412;11.918;2023-05-29T01:57:02;24.42;;;17.05;;
43048;SDS011;28673;44.412;11.918;2023-05-29T01:59:32;26.42;;;17.20;;
43048;SDS011;28673;44.412;11.918;2023-05-29T02:02:04;29.48;;;17.35;;
43048;SDS011;28673;44.412;11.918;2023-05-29T02:04:34;25.92;;;17.45;;
43048;SDS011;28673;44.412;11.918;2023-05-29T02:07:18;28.67;;;17.83;;
43048;SDS011;28673;44.412;11.918;2023-05-29T02:09:44;25.08;;;15.85;;
43048;SDS011;28673;44.412;11.918;2023-05-29T02:12:29;23.33;;;17.90;;
43048;SDS011;28673;44.412;11.918;2023-05-29T02:14:55;25.05;;;17.13;;
43048;SDS011;28673;44.412;11.918;2023-05-29T02:17:22;24.80;;;18.05;;
43048;SDS011;28673;44.412;11.918;2023-05-29T02:19:48;23.88;;;16.17;;
43048;SDS011;28673;44.412;11.918;2023-05-29T02:22:16;23.30;;;16.50;;
43048;SDS011;28673;44.412;11.918;2023-05-29T02:24:43;23.17;;;17.52;;
43048;SDS011;28673;44.412;11.918;2023-05-29T02:27:08;26.77;;;18.13;;
43048;SDS011;28673;44.412;11.918;2023-05-29T02:29:34;26.13;;;16.42;;
43048;SDS011;28673;44.412;11.918;2023-05-29T02:32:00;20.92;;;15.73;;
43048;SDS011;28673;44.412;11.918;2023-05-29T02:34:26;30.90;;;15.52;;
43048;SDS011;28673;44.412;11.918;2023-05-29T02:36:52;33.47;;;17.13;;
43048;SDS011;28673;44.412;11.918;2023-05-29T02:39:19;22.73;;;16.55;;
43048;SDS011;28673;44.412;11.918;2023-05-29T02:41:45;35.20;;;19.42;;
43048;SDS011;28673;44.412;11.918;2023-05-29T02:44:12;23.33;;;16.50;;
43048;SDS011;28673;44.412;11.918;2023-05-29T02:46:38;24.65;;;17.65;;
43048;SDS011;28673;44.412;11.918;2023-05-29T02:49:04;29.45;;;18.23;;
43048;SDS011;28673;44.412;11.918;2023-05-29T02:51:30;29.17;;;18.60;;
43048;SDS011;28673;44.412;11.918;2023-05-29T02:53:57;33.65;;;18.55;;
43048;SDS011;28673;44.412;11.918;2023-05-29T02:56:24;34.15;;;19.33;;
43048;SDS011;28673;44.412;11.918;2023-05-29T02:58:50;35.28;;;18.42;;
43048;SDS011;28673;44.412;11.918;2023-05-29T03:01:16;29.13;;;18.17;;
43048;SDS011;28673;44.412;11.918;2023-05-29T03:03:42;26.80;;;17.67;;
43048;SDS011;28673;44.412;11.918;2023-05-29T03:06:09;32.97;;;18.60;;
43048;SDS011;28673;44.412;11.918;2023-05-29T03:08:39;25.00;;;18.03;;
43048;SDS011;28673;44.412;11.918;2023-05-29T03:11:08;26.52;;;17.25;;
43048;SDS011;28673;44.412;11.918;2023-05-29T03:13:36;24.67;;;17.13;;
43048;SDS011;28673;44.412;11.918;2023-05-29T03:16:05;25.55;;;17.10;;
43048;SDS011;28673;44.412;11.918;2023-05-29T03:18:34;22.58;;;16.73;;
43048;SDS011;28673;44.412;11.918;2023-05-29T03:21:00;25.52;;;16.92;;
43048;SDS011;28673;44.412;11.918;2023-05-29T03:23:27;26.58;;;17.27;;
43048;SDS011;28673;44.412;11.918;2023-05-29T03:25:53;24.10;;;17.23;;
43048;SDS011;28673;44.412;11.918;2023-05-29T03:28:20;22.65;;;16.65;;
43048;SDS011;28673;44.412;11.918;2023-05-29T03:30:46;23.35;;;16.67;;
43048;SDS011;28673;44.412;11.918;2023-05-29T03:33:16;23.05;;;15.98;;
43048;SDS011;28673;44.412;11.918;2023-05-29T03:35:56;29.35;;;16.75;;
43048;SDS011;28673;44.412;11.918;2023-05-29T03:38:23;30.20;;;16.75;;
43048;SDS011;28673;44.412;11.918;2023-05-29T03:40:49;27.55;;;16.63;;
43048;SDS011;28673;44.412;11.918;2023-05-29T03:43:14;29.77;;;14.57;;
43048;SDS011;28673;44.412;11.918;2023-05-29T03:45:41;19.20;;;14.68;;
43048;SDS011;28673;44.412;11.918;2023-05-29T03:48:07;29.40;;;15.68;;
43048;SDS011;28673;44.412;11.918;2023-05-29T03:50:33;21.30;;;16.98;;
43048;SDS011;28673;44.412;11.918;2023-05-29T03:52:58;26.42;;;16.23;;
43048;SDS011;28673;44.412;11.918;2023-05-29T03:55:25;24.40;;;17.50;;
43048;SDS011;28673;44.412;11.918;2023-05-29T03:57:52;26.45;;;17.10;;
43048;SDS011;28673;44.412;11.918;2023-05-29T04:00:18;22.92;;;17.38;;
43048;SDS011;28673;44.412;11.918;2023-05-29T04:02:46;23.63;;;16.95;;
43048;SDS011;28673;44.412;11.918;2023-05-29T04:05:12;26.85;;;17.58;;
43048;SDS011;28673;44.412;11.918;2023-05-29T04:07:39;27.73;;;17.65;;
43048;SDS011;28673;44.412;11.918;2023-05-29T04:10:07;31.80;;;19.67;;
43048;SDS011;28673;44.412;11.918;2023-05-29T04:12:33;26.83;;;18.30;;
43048;SDS011;28673;44.412;11.918;2023-05-29T04:14:59;23.10;;;18.15;;
43048;SDS011;28673;44.412;11.918;2023-05-29T04:17:26;27.67;;;18.05;;
43048;SDS011;28673;44.412;11.918;2023-05-29T04:19:52;28.13;;;19.80;;
43048;SDS011;28673;44.412;11.918;2023-05-29T04:22:17;26.15;;;17.77;;
43048;SDS011;28673;44.412;11.918;2023-05-29T04:24:44;25.05;;;17.25;;
43048;SDS011;28673;44.412;11.918;2023-05-29T04:27:12;28.67;;;17.67;;
43048;SDS011;28673;44.412;11.918;2023-05-29T04:29:39;26.50;;;17.48;;
43048;SDS011;28673;44.412;11.918;2023-05-29T04:32:10;30.60;;;17.15;;
43048;SDS011;28673;44.412;11.918;2023-05-29T04:34:38;24.70;;;15.25;;
43048;SDS011;28673;44.412;11.918;2023-05-29T04:37:04;25.50;;;18.08;;
43048;SDS011;28673;44.412;11.918;2023-05-29T04:39:31;33.92;;;17.58;;
43048;SDS011;28673;44.412;11.918;2023-05-29T04:41:58;28.90;;;16.52;;
43048;SDS011;28673;44.412;11.918;2023-05-29T04:44:24;30.75;;;18.52;;
43048;SDS011;28673;44.412;11.918;2023-05-29T04:46:53;24.58;;;17.80;;
43048;SDS011;28673;44.412;11.918;2023-05-29T04:49:19;32.15;;;17.70;;
43048;SDS011;28673;44.412;11.918;2023-05-29T04:51:46;28.50;;;16.75;;
43048;SDS011;28673;44.412;11.918;2023-05-29T04:54:12;29.55;;;16.65;;
43048;SDS011;28673;44.412;11.918;2023-05-29T04:56:39;23.08;;;16.33;;
43048;SDS011;28673;44.412;11.918;2023-05-29T04:59:07;24.70;;;16.40;;
43048;SDS011;28673;44.412;11.918;2023-05-29T05:01:34;25.13;;;16.67;;
43048;SDS011;28673;44.412;11.918;2023-05-29T05:04:00;29.20;;;18.30;;
43048;SDS011;28673;44.412;11.918;2023-05-29T05:06:26;25.17;;;17.10;;
43048;SDS011;28673;44.412;11.918;2023-05-29T05:08:52;33.55;;;18.23;;
43048;SDS011;28673;44.412;11.918;2023-05-29T05:11:19;27.15;;;18.10;;
43048;SDS011;28673;44.412;11.918;2023-05-29T05:13:46;27.40;;;19.05;;
43048;SDS011;28673;44.412;11.918;2023-05-29T05:16:12;26.90;;;16.90;;
43048;SDS011;28673;44.412;11.918;2023-05-29T05:18:39;26.65;;;17.52;;
43048;SDS011;28673;44.412;11.918;2023-05-29T05:21:06;30.30;;;19.52;;
43048;SDS011;28673;44.412;11.918;2023-05-29T05:23:34;26.73;;;18.27;;
43048;SDS011;28673;44.412;11.918;2023-05-29T05:26:01;26.00;;;19.50;;
43048;SDS011;28673;44.412;11.918;2023-05-29T05:28:28;30.48;;;17.35;;
43048;SDS011;28673;44.412;11.918;2023-05-29T05:30:54;28.30;;;19.48;;
43048;SDS011;28673;44.412;11.918;2023-05-29T05:33:20;32.53;;;20.00;;
43048;SDS011;28673;44.412;11.918;2023-05-29T05:35:46;34.75;;;21.20;;
43048;SDS011;28673;44.412;11.918;2023-05-29T05:38:11;32.05;;;21.42;;
43048;SDS011;28673;44.412;11.918;2023-05-29T05:40:38;39.22;;;21.55;;
43048;SDS011;28673;44.412;11.918;2023-05-29T05:43:13;33.78;;;21.77;;
43048;SDS011;28673;44.412;11.918;2023-05-29T05:48:41;34.13;;;20.33;;
43048;SDS011;28673;44.412;11.918;2023-05-29T05:51:07;28.65;;;20.30;;
43048;SDS011;28673;44.412;11.918;2023-05-29T05:53:33;33.40;;;21.30;;
43048;SDS011;28673;44.412;11.918;2023-05-29T05:56:00;32.00;;;18.73;;
43048;SDS011;28673;44.412;11.918;2023-05-29T05:58:26;33.22;;;19.27;;
43048;SDS011;28673;44.412;11.918;2023-05-29T06:00:52;34.42;;;21.80;;
43048;SDS011;28673;44.412;11.918;2023-05-29T06:03:18;33.28;;;20.95;;
43048;SDS011;28673;44.412;11.918;2023-05-29T06:05:59;30.75;;;19.50;;
43048;SDS011;28673;44.412;11.918;2023-05-29T06:08:25;30.20;;;20.92;;
43048;SDS011;28673;44.412;11.918;2023-05-29T06:10:51;35.03;;;20.00;;
43048;SDS011;28673;44.412;11.918;2023-05-29T06:13:18;38.17;;;20.77;;
43048;SDS011;28673;44.412;11.918;2023-05-29T06:15:48;37.95;;;20.08;;
43048;SDS011;28673;44.412;11.918;2023-05-29T06:18:14;31.52;;;19.65;;
43048;SDS011;28673;44.412;11.918;2023-05-29T06:20:40;30.50;;;19.25;;
43048;SDS011;28673;44.412;11.918;2023-05-29T06:23:07;29.80;;;17.77;;
43048;SDS011;28673;44.412;11.918;2023-05-29T06:25:33;32.60;;;21.02;;
43048;SDS011;28673;44.412;11.918;2023-05-29T06:28:00;33.60;;;18.75;;
43048;SDS011;28673;44.412;11.918;2023-05-29T06:30:26;27.25;;;17.98;;
43048;SDS011;28673;44.412;11.918;2023-05-29T06:32:53;23.40;;;17.33;;
43048;SDS011;28673;44.412;11.918;2023-05-29T06:35:25;32.63;;;17.10;;
43048;SDS011;28673;44.412;11.918;2023-05-29T06:37:51;30.10;;;17.80;;
43048;SDS011;28673;44.412;11.918;2023-05-29T06:40:17;30.67;;;20.02;;
43048;SDS011;28673;44.412;11.918;2023-05-29T06:42:43;30.80;;;16.88;;
43048;SDS011;28673;44.412;11.918;2023-05-29T06:45:13;27.23;;;18.20;;
43048;SDS011;28673;44.412;11.918;2023-05-29T06:47:40;29.40;;;18.80;;
43048;SDS011;28673;44.412;11.918;2023-05-29T06:50:07;29.05;;;18.98;;
43048;SDS011;28673;44.412;11.918;2023-05-29T06:52:35;24.50;;;16.65;;
43048;SDS011;28673;44.412;11.918;2023-05-29T06:55:25;29.07;;;17.73;;
43048;SDS011;28673;44.412;11.918;2023-05-29T06:57:54;22.98;;;17.08;;
43048;SDS011;28673;44.412;11.918;2023-05-29T07:00:22;29.10;;;17.00;;
43048;SDS011;28673;44.412;11.918;2023-05-29T07:03:08;27.27;;;16.75;;
43048;SDS011;28673;44.412;11.918;2023-05-29T07:05:34;23.55;;;16.23;;
43048;SDS011;28673;44.412;11.918;2023-05-29T07:08:01;23.98;;;16.80;;
43048;SDS011;28673;44.412;11.918;2023-05-29T07:10:27;29.67;;;16.55;;
43048;SDS011;28673;44.412;11.918;2023-05-29T07:12:53;26.08;;;16.30;;
43048;SDS011;28673;44.412;11.918;2023-05-29T07:15:19;21.38;;;15.77;;
43048;SDS011;28673;44.412;11.918;2023-05-29T07:17:45;23.77;;;16.42;;
43048;SDS011;28673;44.412;11.918;2023-05-29T07:20:17;28.42;;;16.73;;
43048;SDS011;28673;44.412;11.918;2023-05-29T07:22:46;24.83;;;15.82;;
43048;SDS011;28673;44.412;11.918;2023-05-29T07:25:12;26.15;;;14.65;;
43048;SDS011;28673;44.412;11.918;2023-05-29T07:27:38;25.00;;;16.88;;
43048;SDS011;28673;44.412;11.918;2023-05-29T07:30:04;26.13;;;16.67;;
43048;SDS011;28673;44.412;11.918;2023-05-29T07:32:32;23.55;;;15.05;;
43048;SDS011;28673;44.412;11.918;2023-05-29T07:34:58;24.30;;;15.43;;
43048;SDS011;28673;44.412;11.918;2023-05-29T07:37:24;29.70;;;15.05;;
43048;SDS011;28673;44.412;11.918;2023-05-29T07:39:52;21.17;;;12.85;;
43048;SDS011;28673;44.412;11.918;2023-05-29T07:42:40;26.63;;;15.07;;
43048;SDS011;28673;44.412;11.918;2023-05-29T07:45:07;26.13;;;14.55;;
43048;SDS011;28673;44.412;11.918;2023-05-29T07:47:33;20.90;;;13.45;;
43048;SDS011;28673;44.412;11.918;2023-05-29T07:49:59;22.73;;;13.10;;
43048;SDS011;28673;44.412;11.918;2023-05-29T07:52:27;26.08;;;14.55;;
43048;SDS011;28673;44.412;11.918;2023-05-29T07:54:54;21.17;;;13.93;;
43048;SDS011;28673;44.412;11.918;2023-05-29T07:57:22;23.30;;;14.45;;
43048;SDS011;28673;44.412;11.918;2023-05-29T07:59:50;22.58;;;14.05;;
43048;SDS011;28673;44.412;11.918;2023-05-29T08:02:16;23.98;;;14.15;;
43048;SDS011;28673;44.412;11.918;2023-05-29T08:04:54;19.65;;;12.07;;
43048;SDS011;28673;44.412;11.918;2023-05-29T08:07:22;20.67;;;12.73;;
43048;SDS011;28673;44.412;11.918;2023-05-29T08:09:48;22.30;;;12.88;;
43048;SDS011;28673;44.412;11.918;2023-05-29T08:12:14;18.80;;;12.43;;
43048;SDS011;28673;44.412;11.918;2023-05-29T08:14:42;15.85;;;11.48;;
43048;SDS011;28673;44.412;11.918;2023-05-29T08:17:08;20.95;;;10.48;;
43048;SDS011;28673;44.412;11.918;2023-05-29T08:19:34;20.63;;;11.82;;
43048;SDS011;28673;44.412;11.918;2023-05-29T08:22:00;24.25;;;13.18;;
43048;SDS011;28673;44.412;11.918;2023-05-29T08:24:26;15.55;;;11.02;;
43048;SDS011;28673;44.412;11.918;2023-05-29T08:26:53;19.98;;;12.40;;
43048;SDS011;28673;44.412;11.918;2023-05-29T08:29:19;19.88;;;11.75;;
43048;SDS011;28673;44.412;11.918;2023-05-29T08:31:45;13.60;;;10.77;;
43048;SDS011;28673;44.412;11.918;2023-05-29T08:34:11;18.27;;;11.13;;
43048;SDS011;28673;44.412;11.918;2023-05-29T08:36:37;19.65;;;12.60;;
43048;SDS011;28673;44.412;11.918;2023-05-29T08:39:03;25.88;;;12.80;;
43048;SDS011;28673;44.412;11.918;2023-05-29T08:44:21;13.30;;;10.57;;
43048;SDS011;28673;44.412;11.918;2023-05-29T08:46:49;20.15;;;13.32;;
43048;SDS011;28673;44.412;11.918;2023-05-29T08:49:20;18.20;;;11.65;;
43048;SDS011;28673;44.412;11.918;2023-05-29T08:51:47;18.50;;;9.82;;
43048;SDS011;28673;44.412;11.918;2023-05-29T08:54:20;19.98;;;10.90;;
43048;SDS011;28673;44.412;11.918;2023-05-29T08:56:46;15.70;;;10.30;;
43048;SDS011;28673;44.412;11.918;2023-05-29T08:59:12;9.90;;;7.07;;
43048;SDS011;28673;44.412;11.918;2023-05-29T09:01:38;20.40;;;9.90;;
43048;SDS011;28673;44.412;11.918;2023-05-29T09:04:05;15.43;;;8.65;;
43048;SDS011;28673;44.412;11.918;2023-05-29T09:06:31;17.50;;;10.27;;
43048;SDS011;28673;44.412;11.918;2023-05-29T09:08:57;13.65;;;8.13;;
43048;SDS011;28673;44.412;11.918;2023-05-29T09:11:23;14.52;;;10.25;;
43048;SDS011;28673;44.412;11.918;2023-05-29T09:13:49;22.58;;;10.50;;
43048;SDS011;28673;44.412;11.918;2023-05-29T09:16:17;13.10;;;9.02;;
43048;SDS011;28673;44.412;11.918;2023-05-29T09:18:43;16.58;;;8.82;;
43048;SDS011;28673;44.412;11.918;2023-05-29T09:21:24;17.52;;;9.38;;
43048;SDS011;28673;44.412;11.918;2023-05-29T09:23:53;8.98;;;6.05;;
43048;SDS011;28673;44.412;11.918;2023-05-29T09:26:20;16.48;;;6.85;;
43048;SDS011;28673;44.412;11.918;2023-05-29T09:28:48;17.83;;;8.65;;
43048;SDS011;28673;44.412;11.918;2023-05-29T09:31:15;15.25;;;6.93;;
43048;SDS011;28673;44.412;11.918;2023-05-29T09:33:49;20.30;;;9.02;;
43048;SDS011;28673;44.412;11.918;2023-05-29T09:36:19;11.80;;;6.87;;
43048;SDS011;28673;44.412;11.918;2023-05-29T09:38:47;10.10;;;6.00;;
43048;SDS011;28673;44.412;11.918;2023-05-29T09:41:13;13.07;;;7.35;;
43048;SDS011;28673;44.412;11.918;2023-05-29T09:43:45;16.10;;;6.88;;
43048;SDS011;28673;44.412;11.918;2023-05-29T09:46:15;12.27;;;6.45;;
43048;SDS011;28673;44.412;11.918;2023-05-29T09:48:45;6.88;;;4.88;;
43048;SDS011;28673;44.412;11.918;2023-05-29T09:51:19;16.13;;;5.85;;
43048;SDS011;28673;44.412;11.918;2023-05-29T09:53:47;11.05;;;6.78;;
43048;SDS011;28673;44.412;11.918;2023-05-29T09:56:13;10.10;;;5.53;;
43048;SDS011;28673;44.412;11.918;2023-05-29T09:58:42;10.95;;;5.65;;
43048;SDS011;28673;44.412;11.918;2023-05-29T10:01:11;15.15;;;7.05;;
43048;SDS011;28673;44.412;11.918;2023-05-29T10:03:38;10.95;;;5.95;;
43048;SDS011;28673;44.412;11.918;2023-05-29T10:06:04;11.63;;;5.25;;
43048;SDS011;28673;44.412;11.918;2023-05-29T10:08:34;7.17;;;5.10;;
43048;SDS011;28673;44.412;11.918;2023-05-29T10:11:03;10.45;;;6.57;;
43048;SDS011;28673;44.412;11.918;2023-05-29T10:13:38;13.88;;;6.65;;
43048;SDS011;28673;44.412;11.918;2023-05-29T10:16:13;11.68;;;6.22;;
43048;SDS011;28673;44.412;11.918;2023-05-29T10:18:44;9.45;;;6.82;;
43048;SDS011;28673;44.412;11.918;2023-05-29T10:21:14;10.90;;;6.30;;
43048;SDS011;28673;44.412;11.918;2023-05-29T10:23:42;8.40;;;5.13;;
43048;SDS011;28673;44.412;11.918;2023-05-29T10:26:15;14.75;;;5.50;;
43048;SDS011;28673;44.412;11.918;2023-05-29T10:28:49;13.18;;;5.05;;
43048;SDS011;28673;44.412;11.918;2023-05-29T10:31:20;9.48;;;4.68;;
43048;SDS011;28673;44.412;11.918;2023-05-29T10:36:44;8.60;;;4.75;;
43048;SDS011;28673;44.412;11.918;2023-05-29T10:39:17;9.48;;;4.55;;
43048;SDS011;28673;44.412;11.918;2023-05-29T10:41:45;8.30;;;5.13;;
43048;SDS011;28673;44.412;11.918;2023-05-29T10:49:23;8.43;;;4.20;;
43048;SDS011;28673;44.412;11.918;2023-05-29T10:51:49;5.00;;;4.47;;
43048;SDS011;28673;44.412;11.918;2023-05-29T10:54:23;7.68;;;4.53;;
43048;SDS011;28673;44.412;11.918;2023-05-29T10:56:57;10.65;;;4.90;;
43048;SDS011;28673;44.412;11.918;2023-05-29T10:59:27;9.27;;;4.97;;
43048;SDS011;28673;44.412;11.918;2023-05-29T11:01:53;9.98;;;4.18;;
43048;SDS011;28673;44.412;11.918;2023-05-29T11:06:46;13.00;;;4.95;;
43048;SDS011;28673;44.412;11.918;2023-05-29T11:14:46;7.45;;;4.28;;
43048;SDS011;28673;44.412;11.918;2023-05-29T11:17:30;9.35;;;5.35;;
43048;SDS011;28673;44.412;11.918;2023-05-29T11:20:00;7.47;;;4.07;;
43048;SDS011;28673;44.412;11.918;2023-05-29T11:22:43;9.35;;;5.30;;
43048;SDS011;28673;44.412;11.918;2023-05-29T11:25:14;9.75;;;4.13;;
43048;SDS011;28673;44.412;11.918;2023-05-29T11:27:41;12.50;;;4.78;;
43048;SDS011;28673;44.412;11.918;2023-05-29T11:30:09;8.82;;;5.13;;
43048;SDS011;28673;44.412;11.918;2023-05-29T11:32:36;6.43;;;4.20;;
43048;SDS011;28673;44.412;11.918;2023-05-29T11:35:09;6.65;;;3.88;;
43048;SDS011;28673;44.412;11.918;2023-05-29T11:37:36;8.25;;;4.53;;
43048;SDS011;28673;44.412;11.918;2023-05-29T11:40:06;6.95;;;4.32;;
43048;SDS011;28673;44.412;11.918;2023-05-29T11:42:34;7.88;;;4.70;;
43048;SDS011;28673;44.412;11.918;2023-05-29T11:45:14;10.80;;;4.75;;
43048;SDS011;28673;44.412;11.918;2023-05-29T11:47:57;6.68;;;4.72;;
43048;SDS011;28673;44.412;11.918;2023-05-29T11:50:24;6.90;;;4.25;;
43048;SDS011;28673;44.412;11.918;2023-05-29T11:52:52;6.85;;;5.45;;
43048;SDS011;28673;44.412;11.918;2023-05-29T11:55:18;8.95;;;4.82;;
43048;SDS011;28673;44.412;11.918;2023-05-29T11:57:46;5.72;;;4.30;;
43048;SDS011;28673;44.412;11.918;2023-05-29T12:00:13;10.23;;;4.00;;
43048;SDS011;28673;44.412;11.918;2023-05-29T12:02:40;5.25;;;3.92;;
43048;SDS011;28673;44.412;11.918;2023-05-29T12:05:08;9.60;;;4.75;;
43048;SDS011;28673;44.412;11.918;2023-05-29T12:07:35;7.05;;;4.78;;
43048;SDS011;28673;44.412;11.918;2023-05-29T12:10:08;11.55;;;4.97;;
43048;SDS011;28673;44.412;11.918;2023-05-29T12:12:35;6.30;;;4.15;;
43048;SDS011;28673;44.412;11.918;2023-05-29T12:15:01;8.02;;;4.72;;
43048;SDS011;28673;44.412;11.918;2023-05-29T12:17:30;8.10;;;4.70;;
43048;SDS011;28673;44.412;11.918;2023-05-29T12:19:57;10.18;;;4.10;;
43048;SDS011;28673;44.412;11.918;2023-05-29T12:22:35;7.03;;;4.63;;
43048;SDS011;28673;44.412;11.918;2023-05-29T12:25:16;10.00;;;4.40;;
43048;SDS011;28673;44.412;11.918;2023-05-29T12:27:45;8.40;;;5.45;;
43048;SDS011;28673;44.412;11.918;2023-05-29T12:30:13;6.72;;;4.25;;
43048;SDS011;28673;44.412;11.918;2023-05-29T12:32:53;4.80;;;3.85;;
43048;SDS011;28673;44.412;11.918;2023-05-29T12:37:59;6.78;;;3.78;;
43048;SDS011;28673;44.412;11.918;2023-05-29T12:40:30;5.32;;;4.15;;
43048;SDS011;28673;44.412;11.918;2023-05-29T12:43:05;8.85;;;4.20;;
43048;SDS011;28673;44.412;11.918;2023-05-29T12:45:35;7.20;;;4.10;;
43048;SDS011;28673;44.412;11.918;2023-05-29T12:48:02;7.88;;;4.10;;
43048;SDS011;28673;44.412;11.918;2023-05-29T12:53:04;7.75;;;4.30;;
43048;SDS011;28673;44.412;11.918;2023-05-29T12:55:38;9.10;;;5.05;;
43048;SDS011;28673;44.412;11.918;2023-05-29T12:58:08;6.07;;;3.78;;
43048;SDS011;28673;44.412;11.918;2023-05-29T13:00:36;5.35;;;3.83;;
43048;SDS011;28673;44.412;11.918;2023-05-29T13:03:03;7.78;;;4.32;;
43048;SDS011;28673;44.412;11.918;2023-05-29T13:05:31;6.90;;;4.47;;
43048;SDS011;28673;44.412;11.918;2023-05-29T13:07:57;9.65;;;4.70;;
43048;SDS011;28673;44.412;11.918;2023-05-29T13:10:23;8.20;;;3.90;;
43048;SDS011;28673;44.412;11.918;2023-05-29T13:12:52;8.77;;;4.93;;
43048;SDS011;28673;44.412;11.918;2023-05-29T13:15:23;7.05;;;4.85;;
43048;SDS011;28673;44.412;11.918;2023-05-29T13:17:48;10.05;;;4.65;;
43048;SDS011;28673;44.412;11.918;2023-05-29T13:20:15;7.20;;;3.97;;
43048;SDS011;28673;44.412;11.918;2023-05-29T13:22:42;9.55;;;4.25;;
43048;SDS011;28673;44.412;11.918;2023-05-29T13:25:11;5.65;;;3.60;;
43048;SDS011;28673;44.412;11.918;2023-05-29T13:27:47;6.53;;;3.90;;
43048;SDS011;28673;44.412;11.918;2023-05-29T13:30:14;7.13;;;4.70;;
43048;SDS011;28673;44.412;11.918;2023-05-29T13:32:41;6.95;;;4.07;;
43048;SDS011;28673;44.412;11.918;2023-05-29T13:35:07;6.80;;;3.95;;
43048;SDS011;28673;44.412;11.918;2023-05-29T13:37:35;7.22;;;4.35;;
43048;SDS011;28673;44.412;11.918;2023-05-29T13:40:02;8.02;;;4.20;;
43048;SDS011;28673;44.412;11.918;2023-05-29T13:42:29;5.15;;;4.45;;
43048;SDS011;28673;44.412;11.918;2023-05-29T13:44:55;8.02;;;5.28;;
43048;SDS011;28673;44.412;11.918;2023-05-29T13:47:21;5.72;;;3.65;;
43048;SDS011;28673;44.412;11.918;2023-05-29T13:49:47;8.60;;;4.50;;
43048;SDS011;28673;44.412;11.918;2023-05-29T13:52:13;8.80;;;4.32;;
43048;SDS011;28673;44.412;11.918;2023-05-29T13:54:39;8.02;;;4.20;;
43048;SDS011;28673;44.412;11.918;2023-05-29T13:57:05;4.85;;;4.18;;
43048;SDS011;28673;44.412;11.918;2023-05-29T13:59:32;7.45;;;4.15;;
43048;SDS011;28673;44.412;11.918;2023-05-29T14:01:59;8.18;;;4.22;;
43048;SDS011;28673;44.412;11.918;2023-05-29T14:04:26;8.55;;;4.25;;
43048;SDS011;28673;44.412;11.918;2023-05-29T14:06:54;11.73;;;4.38;;
43048;SDS011;28673;44.412;11.918;2023-05-29T14:09:21;8.13;;;4.32;;
43048;SDS011;28673;44.412;11.918;2023-05-29T14:11:53;4.97;;;4.03;;
43048;SDS011;28673;44.412;11.918;2023-05-29T14:14:25;13.25;;;4.38;;
43048;SDS011;28673;44.412;11.918;2023-05-29T14:16:52;9.23;;;4.70;;
43048;SDS011;28673;44.412;11.918;2023-05-29T14:19:19;7.07;;;4.40;;
43048;SDS011;28673;44.412;11.918;2023-05-29T14:21:45;9.45;;;4.93;;
43048;SDS011;28673;44.412;11.918;2023-05-29T14:24:11;7.85;;;4.10;;
43048;SDS011;28673;44.412;11.918;2023-05-29T14:26:38;8.65;;;3.92;;
43048;SDS011;28673;44.412;11.918;2023-05-29T14:29:04;7.75;;;4.57;;
43048;SDS011;28673;44.412;11.918;2023-05-29T14:31:31;10.35;;;4.43;;
43048;SDS011;28673;44.412;11.918;2023-05-29T14:33:57;9.30;;;5.32;;
43048;SDS011;28673;44.412;11.918;2023-05-29T14:36:23;8.20;;;4.55;;
43048;SDS011;28673;44.412;11.918;2023-05-29T14:38:49;11.98;;;5.00;;
43048;SDS011;28673;44.412;11.918;2023-05-29T14:41:15;5.32;;;4.15;;
43048;SDS011;28673;44.412;11.918;2023-05-29T14:43:43;8.18;;;4.45;;
43048;SDS011;28673;44.412;11.918;2023-05-29T14:46:09;6.72;;;4.35;;
43048;SDS011;28673;44.412;11.918;2023-05-29T14:48:35;6.05;;;3.70;;
43048;SDS011;28673;44.412;11.918;2023-05-29T14:51:01;6.68;;;4.40;;
43048;SDS011;28673;44.412;11.918;2023-05-29T14:53:27;8.98;;;5.72;;
43048;SDS011;28673;44.412;11.918;2023-05-29T14:55:53;5.53;;;3.90;;
43048;SDS011;28673;44.412;11.918;2023-05-29T14:58:21;7.55;;;4.28;;
43048;SDS011;28673;44.412;11.918;2023-05-29T15:00:47;8.18;;;4.22;;
43048;SDS011;28673;44.412;11.918;2023-05-29T15:03:13;9.05;;;4.55;;
43048;SDS011;28673;44.412;11.918;2023-05-29T15:05:39;5.88;;;4.55;;
43048;SDS011;28673;44.412;11.918;2023-05-29T15:08:05;6.93;;;4.75;;
43048;SDS011;28673;44.412;11.918;2023-05-29T15:10:31;8.10;;;4.80;;
43048;SDS011;28673;44.412;11.918;2023-05-29T15:12:57;8.68;;;4.95;;
43048;SDS011;28673;44.412;11.918;2023-05-29T15:15:24;7.68;;;4.55;;